createdAt,value
2019-03-11T00:01:49.813Z,7.27
2019-03-11T00:04:20.780Z,7.63
2019-03-11T00:06:51.625Z,14.87
2019-03-11T00:09:21.939Z,6.70
2019-03-11T00:11:52.140Z,7.43
2019-03-11T00:14:22.445Z,7.87
2019-03-11T00:16:52.777Z,9.10
2019-03-11T00:19:23.002Z,7.37
2019-03-11T00:21:53.266Z,5.73
2019-03-11T00:24:23.542Z,7.27
2019-03-11T00:26:53.833Z,7.47
2019-03-11T00:29:24.100Z,11.53
2019-03-11T00:31:54.417Z,10.33
2019-03-11T00:34:24.683Z,11.10
2019-03-11T00:36:54.987Z,11.73
2019-03-11T00:39:25.271Z,8.47
2019-03-11T00:41:55.474Z,9.33
2019-03-11T00:44:25.711Z,7.47
2019-03-11T00:46:55.923Z,6.77
2019-03-11T00:49:26.230Z,6.90
2019-03-11T00:51:56.507Z,6.10
2019-03-11T00:54:26.709Z,9.63
2019-03-11T00:56:56.953Z,5.67
2019-03-11T00:59:27.238Z,9.03
2019-03-11T01:01:57.513Z,8.53
2019-03-11T01:04:27.805Z,7.63
2019-03-11T01:06:58.098Z,9.07
2019-03-11T01:09:28.405Z,7.57
2019-03-11T01:11:58.673Z,8.63
2019-03-11T01:14:28.900Z,7.27
2019-03-11T01:16:59.179Z,9.63
2019-03-11T01:19:29.529Z,8.17
2019-03-11T01:21:59.772Z,8.87
2019-03-11T01:24:30.098Z,12.50
2019-03-11T01:27:00.293Z,7.57
2019-03-11T01:29:30.719Z,11.77
2019-03-11T01:32:02.029Z,9.57
2019-03-11T01:34:32.397Z,9.27
2019-03-11T01:37:02.581Z,10.07
2019-03-11T01:39:32.924Z,10.27
2019-03-11T01:42:03.189Z,10.27
2019-03-11T01:44:33.417Z,9.43
2019-03-11T01:47:03.702Z,9.13
2019-03-11T01:49:34.005Z,8.73
2019-03-11T01:52:04.272Z,8.60
2019-03-11T01:54:34.543Z,7.77
2019-03-11T01:57:04.737Z,12.07
2019-03-11T01:59:35.061Z,8.37
2019-03-11T02:02:05.325Z,10.50
2019-03-11T02:04:35.673Z,11.93
2019-03-11T02:07:05.924Z,8.50
2019-03-11T02:09:36.245Z,10.07
2019-03-11T02:12:06.498Z,7.43
2019-03-11T02:14:36.845Z,10.40
2019-03-11T02:17:07.096Z,14.33
2019-03-11T02:19:37.388Z,11.30
2019-03-11T02:22:07.700Z,12.87
2019-03-11T02:24:37.988Z,9.90
2019-03-11T02:27:08.251Z,9.33
2019-03-11T02:29:38.440Z,9.77
2019-03-11T02:32:08.717Z,11.83
2019-03-11T02:34:38.924Z,9.70
2019-03-11T02:37:09.201Z,10.00
2019-03-11T02:39:39.498Z,12.27
2019-03-11T02:42:09.690Z,10.13
2019-03-11T02:44:40.025Z,9.03
2019-03-11T02:47:10.355Z,7.90
2019-03-11T02:49:43.768Z,11.27
2019-03-11T02:52:12.524Z,14.70
2019-03-11T02:54:42.737Z,14.37
2019-03-11T02:57:13.005Z,16.37
2019-03-11T02:59:43.301Z,15.90
2019-03-11T03:02:32.541Z,13.40
2019-03-11T03:05:13.990Z,14.83
2019-03-11T03:07:44.220Z,11.97
2019-03-11T03:10:14.933Z,12.67
2019-03-11T03:12:45.197Z,11.50
2019-03-11T03:15:15.398Z,11.03
2019-03-11T03:17:45.616Z,11.67
2019-03-11T03:20:16.353Z,7.60
2019-03-11T03:22:46.625Z,13.30
2019-03-11T03:25:16.848Z,9.87
2019-03-11T03:27:47.040Z,12.87
2019-03-11T03:30:17.387Z,9.30
2019-03-11T03:32:47.627Z,11.67
2019-03-11T03:35:17.849Z,9.10
2019-03-11T03:37:48.044Z,11.97
2019-03-11T03:40:18.326Z,8.37
2019-03-11T03:42:48.673Z,10.60
2019-03-11T03:45:27.041Z,10.40
2019-03-11T03:47:57.448Z,18.20
2019-03-11T03:50:28.333Z,7.57
2019-03-11T03:52:58.648Z,14.20
2019-03-11T03:55:28.859Z,11.53
2019-03-11T03:57:59.138Z,8.10
2019-03-11T04:00:29.308Z,12.87
2019-03-11T04:02:59.613Z,12.33
2019-03-11T04:05:29.870Z,10.60
2019-03-11T04:08:00.117Z,9.63
2019-03-11T04:10:32.758Z,11.20
2019-03-11T04:13:02.279Z,13.20
2019-03-11T04:15:35.591Z,9.30
2019-03-11T04:18:09.023Z,7.83
2019-03-11T04:20:39.313Z,11.33
2019-03-11T04:23:09.576Z,11.10
2019-03-11T04:25:39.771Z,12.67
2019-03-11T04:28:10.149Z,14.87
2019-03-11T04:30:40.358Z,11.63
2019-03-11T04:33:10.547Z,13.93
2019-03-11T04:35:40.854Z,15.17
2019-03-11T04:38:11.101Z,11.27
2019-03-11T04:40:41.371Z,14.43
2019-03-11T04:43:11.642Z,10.97
2019-03-11T04:45:41.921Z,11.23
2019-03-11T04:48:12.117Z,17.20
2019-03-11T04:50:42.385Z,10.43
2019-03-11T04:53:12.646Z,12.90
2019-03-11T04:55:42.865Z,11.37
2019-03-11T04:58:13.183Z,12.93
2019-03-11T05:00:43.479Z,14.03
2019-03-11T05:03:13.723Z,9.50
2019-03-11T05:05:43.934Z,11.20
2019-03-11T05:08:14.164Z,8.87
2019-03-11T05:10:44.372Z,5.77
2019-03-11T05:13:14.651Z,12.20
2019-03-11T05:15:44.832Z,8.63
2019-03-11T05:18:15.109Z,8.53
2019-03-11T05:20:45.309Z,8.63
2019-03-11T05:23:15.597Z,8.97
2019-03-11T05:25:45.809Z,9.50
2019-03-11T05:28:16.110Z,10.93
2019-03-11T05:30:46.469Z,13.80
2019-03-11T05:33:16.676Z,6.93
2019-03-11T05:35:47.060Z,4.83
2019-03-11T05:38:17.308Z,7.50
2019-03-11T05:40:47.530Z,8.93
2019-03-11T05:43:17.815Z,7.27
2019-03-11T05:45:48.018Z,10.00
2019-03-11T05:48:18.297Z,7.50
2019-03-11T05:50:48.512Z,6.30
2019-03-11T05:53:18.771Z,5.57
2019-03-11T05:55:49.002Z,6.03
2019-03-11T05:58:19.178Z,7.37
2019-03-11T06:00:49.561Z,5.60
2019-03-11T06:03:19.789Z,10.13
2019-03-11T06:05:50.131Z,6.23
2019-03-11T06:08:24.007Z,8.97
2019-03-11T06:10:54.324Z,5.73
2019-03-11T06:13:35.277Z,3.40
2019-03-11T06:15:56.501Z,3.40
2019-03-11T06:18:54.929Z,3.57
2019-03-11T06:21:33.555Z,4.60
2019-03-11T06:24:03.848Z,4.13
2019-03-11T06:26:35.241Z,6.73
2019-03-11T06:29:07.998Z,4.40
2019-03-11T06:31:38.566Z,7.20
2019-03-11T06:34:09.858Z,3.23
2019-03-11T06:36:40.201Z,2.90
2019-03-11T06:39:10.454Z,3.87
2019-03-11T06:41:40.802Z,3.80
2019-03-11T06:44:11.128Z,5.13
2019-03-11T06:46:41.450Z,1.87
2019-03-11T06:49:11.743Z,4.37
2019-03-11T06:51:42.016Z,5.33
2019-03-11T06:54:12.194Z,6.50
2019-03-11T06:56:42.454Z,3.80
2019-03-11T06:59:12.730Z,4.10
2019-03-11T07:01:43.074Z,3.30
2019-03-11T07:04:13.356Z,3.30
2019-03-11T07:06:43.573Z,4.00
2019-03-11T07:09:13.871Z,1.50
2019-03-11T07:11:44.423Z,6.87
2019-03-11T07:14:14.686Z,4.73
2019-03-11T07:16:44.912Z,3.43
2019-03-11T07:19:15.225Z,1.83
2019-03-11T07:21:45.579Z,4.70
2019-03-11T07:24:15.871Z,5.83
2019-03-11T07:26:46.098Z,2.43
2019-03-11T07:29:16.367Z,3.63
2019-03-11T07:31:46.777Z,6.47
2019-03-11T07:34:16.977Z,2.80
2019-03-11T07:36:47.257Z,5.80
2019-03-11T07:39:17.584Z,5.77
2019-03-11T07:41:47.858Z,8.33
2019-03-11T07:44:18.161Z,4.57
2019-03-11T07:46:48.359Z,4.73
2019-03-11T07:49:18.612Z,3.90
2019-03-11T07:51:48.937Z,4.43
2019-03-11T07:54:19.191Z,6.23
2019-03-11T07:56:49.409Z,2.77
2019-03-11T07:59:19.683Z,1.83
2019-03-11T08:01:50.086Z,2.93
2019-03-11T08:04:20.287Z,2.13
2019-03-11T08:06:50.779Z,3.97
2019-03-11T08:09:21.058Z,2.87
2019-03-11T08:11:51.286Z,1.87
2019-03-11T08:14:21.492Z,4.10
2019-03-11T08:16:51.708Z,3.87
2019-03-11T08:19:21.967Z,7.47
2019-03-11T08:21:52.253Z,8.30
2019-03-11T08:24:22.534Z,18.17
2019-03-11T08:26:52.835Z,7.87
2019-03-11T08:29:23.142Z,3.57
2019-03-11T08:31:53.531Z,8.43
2019-03-11T08:34:23.829Z,16.23
2019-03-11T08:36:54.140Z,14.37
2019-03-11T08:39:24.425Z,5.27
2019-03-11T08:41:54.733Z,2.07
2019-03-11T08:44:25.025Z,3.90
2019-03-11T08:46:55.237Z,3.27
2019-03-11T08:49:25.475Z,2.47
2019-03-11T08:51:55.726Z,3.37
2019-03-11T08:54:25.929Z,2.20
2019-03-11T08:56:57.911Z,7.53
2019-03-11T08:59:28.173Z,3.03
2019-03-11T09:01:58.387Z,6.00
2019-03-11T09:04:28.643Z,5.33
2019-03-11T09:06:58.937Z,4.27
2019-03-11T09:09:31.601Z,3.97
2019-03-11T09:12:01.169Z,6.83
2019-03-11T09:14:31.377Z,13.40
2019-03-11T09:17:01.663Z,9.50
2019-03-11T09:19:31.958Z,12.27
2019-03-11T09:22:02.191Z,6.03
2019-03-11T09:24:32.483Z,5.73
2019-03-11T09:27:02.797Z,2.73
2019-03-11T09:29:32.991Z,4.27
2019-03-11T09:32:03.299Z,1.97
2019-03-11T09:34:33.525Z,3.83
2019-03-11T09:37:03.868Z,3.67
2019-03-11T09:39:34.180Z,11.93
2019-03-11T09:42:04.537Z,3.07
2019-03-11T09:44:34.838Z,4.73
2019-03-11T09:47:05.120Z,4.37
2019-03-11T09:49:35.320Z,5.00
2019-03-11T09:52:05.634Z,3.17
2019-03-11T09:54:35.939Z,4.13
2019-03-11T09:57:06.182Z,4.70
2019-03-11T09:59:36.382Z,2.80
2019-03-11T10:02:06.765Z,5.67
2019-03-11T10:04:37.052Z,4.83
2019-03-11T10:07:07.330Z,12.63
2019-03-11T10:09:37.636Z,3.97
2019-03-11T10:12:07.986Z,3.20
2019-03-11T10:14:38.297Z,5.27
2019-03-11T10:17:08.595Z,10.90
2019-03-11T10:19:39.045Z,6.63
2019-03-11T10:22:09.366Z,7.23
2019-03-11T10:24:39.641Z,3.90
2019-03-11T10:27:10.002Z,4.63
2019-03-11T10:29:40.357Z,7.37
2019-03-11T10:32:10.665Z,6.03
2019-03-11T10:34:40.852Z,4.97
2019-03-11T10:37:11.086Z,5.70
2019-03-11T10:39:41.306Z,5.33
2019-03-11T10:42:11.651Z,4.10
2019-03-11T10:44:41.989Z,7.73
2019-03-11T10:47:12.321Z,1.67
2019-03-11T10:49:42.595Z,3.70
2019-03-11T10:52:12.897Z,6.90
2019-03-11T10:54:43.197Z,3.53
2019-03-11T10:57:13.530Z,5.23
2019-03-11T10:59:43.814Z,6.13
2019-03-11T11:02:14.167Z,5.90
2019-03-11T11:04:48.039Z,5.40
2019-03-11T11:07:16.536Z,3.20
2019-03-11T11:09:48.090Z,4.10
2019-03-11T11:12:18.408Z,2.43
2019-03-11T11:14:48.701Z,6.27
2019-03-11T11:17:19.100Z,3.97
2019-03-11T11:19:49.308Z,2.37
2019-03-11T11:22:19.628Z,2.87
2019-03-11T11:24:49.915Z,3.63
2019-03-11T11:27:20.195Z,6.03
2019-03-11T11:29:50.370Z,2.43
2019-03-11T11:32:23.337Z,5.23
2019-03-11T11:34:53.535Z,5.27
2019-03-11T11:37:23.852Z,2.90
2019-03-11T11:39:54.121Z,3.20
2019-03-11T11:42:24.321Z,5.33
2019-03-11T11:44:54.505Z,6.63
2019-03-11T11:47:24.789Z,4.07
2019-03-11T11:49:55.057Z,4.97
2019-03-11T11:52:25.364Z,6.13
2019-03-11T11:54:56.477Z,7.70
2019-03-11T11:57:26.711Z,7.53
2019-03-11T11:59:57.057Z,23.70
2019-03-11T12:02:27.323Z,7.07
2019-03-11T12:04:57.662Z,3.03
2019-03-11T12:07:28.025Z,4.90
2019-03-11T12:09:59.600Z,4.60
2019-03-11T12:12:29.914Z,4.70
2019-03-11T12:15:00.349Z,5.63
2019-03-11T12:17:30.650Z,3.97
2019-03-11T12:20:02.970Z,6.73
2019-03-11T12:22:33.262Z,4.23
2019-03-11T12:25:03.532Z,3.43
2019-03-11T12:27:33.736Z,6.33
2019-03-11T12:30:04.848Z,5.87
2019-03-11T12:32:35.142Z,3.57
2019-03-11T12:35:06.026Z,5.77
2019-03-11T12:37:36.313Z,6.77
2019-03-11T12:40:06.997Z,10.97
2019-03-11T12:42:37.299Z,5.73
2019-03-11T12:45:08.905Z,7.17
2019-03-11T12:47:39.115Z,3.47
2019-03-11T12:50:14.673Z,7.60
2019-03-11T12:52:44.160Z,5.27
2019-03-11T12:55:14.456Z,3.93
2019-03-11T12:57:44.682Z,4.57
2019-03-11T13:00:16.803Z,3.80
2019-03-11T13:02:47.123Z,10.93
2019-03-11T13:05:17.518Z,2.90
2019-03-11T13:07:48.013Z,3.83
2019-03-11T13:10:19.351Z,7.27
2019-03-11T13:12:49.869Z,4.80
2019-03-11T13:15:20.392Z,5.37
2019-03-11T13:17:50.703Z,6.20
2019-03-11T13:20:27.634Z,5.50
2019-03-11T13:22:57.972Z,4.83
2019-03-11T13:25:28.238Z,6.50
2019-03-11T13:27:58.429Z,5.23
2019-03-11T13:30:28.630Z,5.00
2019-03-11T13:32:58.821Z,7.17
2019-03-11T13:35:29.074Z,4.80
2019-03-11T13:37:59.341Z,7.03
2019-03-11T13:40:29.686Z,4.90
2019-03-11T13:42:59.986Z,6.70
2019-03-11T13:45:30.264Z,4.00
2019-03-11T13:48:00.576Z,5.53
2019-03-11T13:50:30.944Z,5.43
2019-03-11T13:53:01.267Z,8.67
2019-03-11T13:55:31.610Z,3.40
2019-03-11T13:58:01.934Z,3.90
2019-03-11T14:00:32.369Z,4.37
2019-03-11T14:03:02.695Z,3.77
2019-03-11T14:05:32.897Z,3.57
2019-03-11T14:08:03.192Z,8.30
2019-03-11T14:10:33.518Z,4.17
2019-03-11T14:13:03.900Z,3.70
2019-03-11T14:15:34.198Z,2.93
2019-03-11T14:18:04.508Z,3.87
2019-03-11T14:20:34.737Z,3.37
2019-03-11T14:23:05.432Z,2.70
2019-03-11T14:25:35.828Z,3.77
2019-03-11T14:28:06.134Z,4.10
2019-03-11T14:30:39.205Z,3.87
2019-03-11T14:33:09.462Z,6.13
2019-03-11T14:35:39.716Z,7.73
2019-03-11T14:38:10.058Z,8.97
2019-03-11T14:40:40.405Z,11.10
2019-03-11T14:43:10.709Z,4.07
2019-03-11T14:45:40.929Z,3.77
2019-03-11T14:48:11.284Z,8.37
2019-03-11T14:50:41.582Z,4.47
2019-03-11T14:53:11.903Z,6.67
2019-03-11T14:55:42.225Z,5.07
2019-03-11T14:58:12.438Z,4.10
2019-03-11T15:00:42.743Z,3.50
2019-03-11T15:03:13.133Z,3.40
2019-03-11T15:05:43.451Z,6.70
2019-03-11T15:08:13.742Z,10.23
2019-03-11T15:10:44.074Z,3.43
2019-03-11T15:13:16.930Z,4.23
2019-03-11T15:15:47.221Z,3.60
2019-03-11T15:18:17.421Z,3.43
2019-03-11T15:20:47.713Z,3.67
2019-03-11T15:23:20.666Z,4.23
2019-03-11T15:25:50.225Z,4.27
2019-03-11T15:28:20.550Z,3.07
2019-03-11T15:30:50.819Z,4.70
2019-03-11T15:33:21.214Z,7.23
2019-03-11T15:35:51.505Z,5.10
2019-03-11T15:38:21.945Z,4.43
2019-03-11T15:40:52.271Z,6.00
2019-03-11T15:43:22.606Z,3.80
2019-03-11T15:45:52.934Z,7.20
2019-03-11T15:48:23.321Z,5.23
2019-03-11T15:50:53.577Z,4.00
2019-03-11T15:53:23.884Z,7.50
2019-03-11T15:55:54.139Z,2.47
2019-03-11T15:58:24.385Z,10.07
2019-03-11T16:00:54.697Z,7.40
2019-03-11T16:03:32.751Z,5.47
2019-03-11T16:05:57.353Z,4.13
2019-03-11T16:08:27.658Z,5.47
2019-03-11T16:10:57.833Z,4.90
2019-03-11T16:13:28.140Z,4.77
2019-03-11T16:15:58.338Z,6.60
2019-03-11T16:18:28.607Z,3.60
2019-03-11T16:20:58.906Z,10.50
2019-03-11T16:23:29.232Z,84.33
2019-03-11T16:25:59.507Z,68.50
2019-03-11T16:28:29.785Z,36.13
2019-03-11T16:31:00.056Z,5.90
2019-03-11T16:33:30.343Z,9.17
2019-03-11T16:36:00.625Z,4.93
2019-03-11T16:38:30.817Z,7.70
2019-03-11T16:41:01.047Z,7.70
2019-03-11T16:43:31.449Z,7.40
2019-03-11T16:46:04.394Z,9.63
2019-03-11T16:48:33.841Z,10.23
2019-03-11T16:51:04.300Z,4.23
2019-03-11T16:53:34.522Z,3.97
2019-03-11T16:56:04.892Z,5.17
2019-03-11T16:58:35.100Z,4.73
2019-03-11T17:01:08.067Z,9.03
2019-03-11T17:03:38.264Z,5.10
2019-03-11T17:06:08.481Z,4.80
2019-03-11T17:08:38.748Z,2.80
2019-03-11T17:11:09.057Z,3.13
2019-03-11T17:13:39.373Z,2.83
2019-03-11T17:16:09.631Z,3.93
2019-03-11T17:18:39.818Z,5.23
2019-03-11T17:21:10.058Z,3.93
2019-03-11T17:23:40.437Z,5.20
2019-03-11T17:26:10.736Z,3.93
2019-03-11T17:28:41.029Z,4.93
2019-03-11T17:31:11.325Z,4.43
2019-03-11T17:33:41.640Z,3.27
2019-03-11T17:36:11.894Z,3.50
2019-03-11T17:38:42.248Z,3.17
2019-03-11T17:41:12.564Z,3.23
2019-03-11T17:43:42.859Z,3.33
2019-03-11T17:46:13.224Z,6.47
2019-03-11T17:48:43.506Z,3.17
2019-03-11T17:51:13.809Z,5.60
2019-03-11T17:53:44.094Z,2.67
2019-03-11T17:56:14.334Z,4.13
2019-03-11T17:58:44.595Z,6.57
2019-03-11T18:01:14.894Z,6.23
2019-03-11T18:03:45.189Z,5.37
2019-03-11T18:06:15.511Z,8.37
2019-03-11T18:08:45.742Z,6.70
2019-03-11T18:11:16.094Z,5.50
2019-03-11T18:13:46.412Z,3.07
2019-03-11T18:16:16.759Z,5.77
2019-03-11T18:18:47.119Z,4.67
2019-03-11T18:21:18.285Z,6.43
2019-03-11T18:23:48.571Z,2.73
2019-03-11T18:26:18.877Z,4.00
2019-03-11T18:28:49.173Z,10.33
2019-03-11T18:31:19.630Z,4.90
2019-03-11T18:33:49.925Z,4.73
2019-03-11T18:36:20.230Z,3.57
2019-03-11T18:38:50.448Z,3.87
2019-03-11T18:41:20.668Z,4.93
2019-03-11T18:43:51.052Z,3.87
2019-03-11T18:46:21.474Z,4.27
2019-03-11T18:48:51.829Z,5.40
2019-03-11T18:51:22.183Z,5.30
2019-03-11T18:53:52.614Z,4.27
2019-03-11T18:56:23.008Z,5.27
2019-03-11T18:58:53.271Z,5.33
2019-03-11T19:01:23.516Z,3.07
2019-03-11T19:03:53.753Z,8.17
2019-03-11T19:06:24.106Z,3.77
2019-03-11T19:08:54.491Z,5.00
2019-03-11T19:11:24.814Z,6.17
2019-03-11T19:13:55.132Z,3.30
2019-03-11T19:16:25.495Z,3.87
2019-03-11T19:18:55.918Z,3.67
2019-03-11T19:21:26.293Z,2.47
2019-03-11T19:23:56.779Z,5.23
2019-03-11T19:26:27.224Z,5.67
2019-03-11T19:28:57.561Z,4.27
2019-03-11T19:31:28.818Z,3.03
2019-03-11T19:33:59.115Z,5.00
2019-03-11T19:36:29.512Z,4.80
2019-03-11T19:38:59.869Z,6.63
2019-03-11T19:41:30.264Z,8.07
2019-03-11T19:44:00.632Z,4.50
2019-03-11T19:46:31.034Z,3.60
2019-03-11T19:49:01.271Z,6.17
2019-03-11T19:51:31.642Z,4.57
2019-03-11T19:54:02.034Z,4.17
2019-03-11T19:56:32.346Z,3.77
2019-03-11T19:59:02.811Z,8.87
2019-03-11T20:01:33.208Z,4.07
2019-03-11T20:04:03.531Z,4.80
2019-03-11T20:06:33.893Z,6.23
2019-03-11T20:09:05.051Z,4.20
2019-03-11T20:11:35.449Z,3.13
2019-03-11T20:14:05.830Z,5.03
2019-03-11T20:16:36.285Z,3.27
2019-03-11T20:19:06.653Z,2.93
2019-03-11T20:21:37.059Z,3.20
2019-03-11T20:24:07.382Z,4.00
2019-03-11T20:26:40.528Z,2.73
2019-03-11T20:29:10.885Z,4.83
2019-03-11T20:31:41.238Z,4.83
2019-03-11T20:34:11.593Z,4.27
2019-03-11T20:36:42.002Z,4.10
2019-03-11T20:39:12.458Z,4.90
2019-03-11T20:41:42.795Z,2.77
2019-03-11T20:44:13.143Z,3.13
2019-03-11T20:46:43.437Z,4.97
2019-03-11T20:49:13.804Z,4.50
2019-03-11T20:51:44.200Z,4.43
2019-03-11T20:54:14.649Z,4.20
2019-03-11T20:56:45.355Z,3.47
2019-03-11T20:59:18.385Z,2.97
2019-03-11T21:01:48.886Z,5.53
2019-03-11T21:04:19.238Z,5.03
2019-03-11T21:06:49.557Z,7.07
2019-03-11T21:09:19.873Z,3.17
2019-03-11T21:11:50.357Z,4.07
2019-03-11T21:14:20.704Z,5.53
2019-03-11T21:16:51.067Z,4.00
2019-03-11T21:19:21.414Z,3.50
2019-03-11T21:21:51.926Z,4.30
2019-03-11T21:24:22.236Z,6.23
2019-03-11T21:26:52.679Z,3.93
2019-03-11T21:29:23.062Z,6.97
2019-03-11T21:31:53.347Z,7.00
2019-03-11T21:34:23.624Z,5.53
2019-03-11T21:36:53.973Z,4.50
2019-03-11T21:39:24.509Z,5.23
2019-03-11T21:41:54.950Z,3.30
2019-03-11T21:44:25.178Z,2.30
2019-03-11T21:46:55.477Z,7.50
2019-03-11T21:49:25.907Z,8.70
2019-03-11T21:51:56.290Z,4.57
2019-03-11T21:54:26.598Z,3.90
2019-03-11T21:56:56.978Z,2.90
2019-03-11T21:59:27.424Z,5.50
2019-03-11T22:01:57.840Z,2.67
2019-03-11T22:04:28.103Z,4.13
2019-03-11T22:06:58.426Z,5.17
2019-03-11T22:09:28.670Z,4.57
2019-03-11T22:11:58.981Z,2.37
2019-03-11T22:14:29.381Z,3.47
2019-03-11T22:16:59.703Z,4.07
2019-03-11T22:19:30.041Z,3.10
2019-03-11T22:22:00.325Z,3.20
2019-03-11T22:24:30.621Z,5.07
2019-03-11T22:27:00.981Z,3.60
2019-03-11T22:29:31.233Z,2.10
2019-03-11T22:32:01.475Z,3.47
2019-03-11T22:34:31.777Z,5.10
2019-03-11T22:37:02.066Z,4.67
2019-03-11T22:39:32.359Z,5.37
2019-03-11T22:42:02.708Z,3.80
2019-03-11T22:44:33.011Z,5.97
2019-03-11T22:47:03.350Z,6.23
2019-03-11T22:49:33.624Z,6.13
2019-03-11T22:52:03.946Z,5.40
2019-03-11T22:54:34.277Z,6.47
2019-03-11T22:57:04.556Z,2.07
2019-03-11T22:59:34.862Z,3.33
2019-03-11T23:02:05.668Z,2.73
2019-03-11T23:04:36.005Z,4.03
2019-03-11T23:07:06.285Z,3.67
2019-03-11T23:09:36.573Z,6.00
2019-03-11T23:12:06.827Z,5.67
2019-03-11T23:14:37.172Z,4.73
2019-03-11T23:17:07.434Z,4.07
2019-03-11T23:19:37.733Z,4.07
2019-03-11T23:22:08.015Z,5.67
2019-03-11T23:24:38.325Z,5.67
2019-03-11T23:27:08.537Z,6.17
2019-03-11T23:29:38.812Z,3.87
2019-03-11T23:32:09.089Z,4.33
2019-03-11T23:34:39.393Z,3.37
2019-03-11T23:37:09.609Z,8.50
2019-03-11T23:39:39.816Z,3.70
2019-03-11T23:42:10.023Z,7.83
2019-03-11T23:44:40.396Z,6.37
2019-03-11T23:47:10.676Z,5.80
2019-03-11T23:49:40.941Z,4.17
2019-03-11T23:52:11.222Z,3.17
2019-03-11T23:54:41.492Z,5.33
2019-03-11T23:57:11.774Z,4.93
2019-03-11T23:59:42.065Z,3.63
